Yoder, Wyoming
Current Conditions -  °F | °C
As of 11:15 PM on Saturday 20 Dec 2014 (Local Time) from KGUR Reporting Station
Clear Clear  
Wind Chill: 36°   Ceiling: Unl
Heat Index: 40°   Visibility: 10mi
Dew Point: 31°   Wind: 7mph
Humidity: 70%   Direction: 280°W
Pressure: 29.86"   Gusts: NA
Location:  41.92°N, 104.3°W
Report Text: KGUR 210615Z AUTO 28006KT 10SM CLR 05/00 A2986 RMK AO2 T00471003
Loading
Personal Weather Stations






























Interactive Weather Map New forecast layout! Learn more

10-Day Weather Forecast

Advertisements
Track Severe Weather on mobile